Terminal Aerodrome Forecast
Issued by NWS Louisville, KY

Home | Current Version | Previous Version | Text Only | Print | Product List | Glossary On
Versions: 1 2 3 4 5 6 7 8 9 10 11 12 13 14 15 16
000
FTUS43 KLMK 280500
TAFLEX
TAF
KLEX 280520Z 2806/2906 20005KT P6SM SCT100 BKN250
     FM280800 20003KT 4SM BR BKN100
     FM281000 00000KT 2SM BR SCT007 BKN100
      TEMPO 2810/2813 1/2SM FG BKN007
     FM281500 19006KT P6SM VCTS SCT015CB BKN035
     FM282200 20005KT P6SM SCT035 BKN050=

USA.gov is the U.S. government's official web portal to all federal, state and local government web resources and services.